Time;durP1;ratioP1;P1;durP2;ratioP2;P2;SDS_P1;SDS_P2;PMS_P1;PMS_P2;Temp;Humidity;BMP_temperature;BMP_pressure;BME280_temperature;BME280_humidity;BME280_pressure;Samples;Min_cycle;Max_cycle;Signal;HPM_P1;HPM_P2
2023/01/29 00:02:18;;;;;;;18.33;11.30;;;1.90;99.90;;;;;;4876447;29;20155;-67
2023/01/29 00:04:44;;;;;;;17.15;10.50;;;1.80;99.90;;;;;;4882903;29;20036;-68
2023/01/29 00:07:10;;;;;;;13.43;9.48;;;1.80;99.90;;;;;;4896397;29;20040;-68
2023/01/29 00:09:35;;;;;;;15.40;9.77;;;1.80;99.90;;;;;;4889473;29;20036;-68
2023/01/29 00:12:01;;;;;;;16.35;10.52;;;1.80;99.90;;;;;;4901291;29;20028;-67
2023/01/29 00:14:27;;;;;;;19.20;10.60;;;1.80;99.90;;;;;;4898301;29;20043;-67
2023/01/29 00:16:53;;;;;;;18.90;11.52;;;1.90;99.90;;;;;;4905684;29;20111;-67
2023/01/29 00:19:19;;;;;;;17.83;11.90;;;2.00;99.90;;;;;;4896399;29;20043;-67
2023/01/29 00:21:45;;;;;;;19.95;12.35;;;2.00;99.90;;;;;;4900049;29;20044;-67
2023/01/29 00:24:11;;;;;;;20.60;13.20;;;1.90;99.90;;;;;;4900505;29;20047;-67
2023/01/29 00:26:38;;;;;;;19.77;12.25;;;1.80;99.90;;;;;;4887885;29;20020;-73
2023/01/29 00:29:05;;;;;;;21.52;12.52;;;1.70;99.90;;;;;;4899138;29;20028;-72
2023/01/29 00:31:30;;;;;;;18.52;12.65;;;1.60;99.90;;;;;;4901519;29;20150;-73
2023/01/29 00:33:57;;;;;;;20.48;12.45;;;1.60;99.90;;;;;;4899698;29;20111;-73
2023/01/29 00:36:24;;;;;;;18.67;12.65;;;1.60;99.90;;;;;;4895200;29;20040;-72
2023/01/29 00:38:57;;;;;;;18.73;12.73;;;1.60;99.90;;;;;;4896958;29;20033;-72
2023/01/29 00:46:58;;;;;;;19.63;12.50;;;1.70;99.90;;;;;;4894540;29;20043;-72
2023/01/29 00:49:23;;;;;;;19.85;13.48;;;1.60;99.90;;;;;;4898744;29;20040;-72
2023/01/29 00:54:33;;;;;;;19.63;13.05;;;1.70;99.90;;;;;;4895416;29;20071;-71
2023/01/29 00:57:00;;;;;;;19.63;13.07;;;1.70;99.90;;;;;;4896357;29;20513;-72
2023/01/29 00:59:25;;;;;;;22.90;13.13;;;1.80;99.90;;;;;;4890428;29;20067;-73
2023/01/29 01:04:35;;;;;;;21.00;13.48;;;2.00;99.90;;;;;;4894878;29;20083;-72
2023/01/29 01:07:01;;;;;;;20.13;13.38;;;2.10;99.90;;;;;;4895083;29;20048;-73
2023/01/29 01:12:11;;;;;;;22.38;14.32;;;2.00;99.90;;;;;;4898961;29;20174;-71
2023/01/29 01:14:36;;;;;;;24.75;15.20;;;1.90;99.90;;;;;;4888573;29;20107;-72
2023/01/29 01:17:02;;;;;;;22.00;14.95;;;1.90;99.90;;;;;;4893644;29;20032;-74
2023/01/29 01:19:27;;;;;;;22.77;14.50;;;1.90;99.90;;;;;;4895230;29;20348;-75
2023/01/29 01:21:53;;;;;;;24.08;15.32;;;2.00;99.90;;;;;;4894743;29;20986;-74
2023/01/29 01:24:19;;;;;;;22.52;15.07;;;2.10;99.90;;;;;;4893878;29;20619;-68
2023/01/29 01:26:45;;;;;;;25.73;16.52;;;2.30;99.90;;;;;;4895946;29;20036;-67
2023/01/29 01:29:11;;;;;;;24.70;16.00;;;2.40;99.90;;;;;;4892490;29;20095;-67
2023/01/29 01:31:38;;;;;;;24.35;15.55;;;2.60;99.90;;;;;;4890637;29;20037;-67
2023/01/29 01:34:03;;;;;;;23.67;14.93;;;2.60;99.90;;;;;;4895847;29;20051;-66
2023/01/29 01:36:31;;;;;;;24.90;16.40;;;2.60;99.90;;;;;;4895021;29;20064;-67
2023/01/29 01:38:57;;;;;;;24.70;14.93;;;2.60;99.90;;;;;;4899986;29;20029;-67
2023/01/29 01:41:22;;;;;;;24.13;15.52;;;2.60;99.90;;;;;;4899092;29;20044;-68
2023/01/29 01:43:56;;;;;;;22.73;14.88;;;2.50;99.90;;;;;;4901381;29;20047;-72
2023/01/29 01:46:23;;;;;;;23.63;15.25;;;2.50;99.90;;;;;;4892036;29;20070;-71
2023/01/29 01:48:57;;;;;;;24.35;15.57;;;2.40;99.90;;;;;;4894388;29;20025;-72
2023/01/29 01:51:24;;;;;;;24.63;15.50;;;2.40;99.90;;;;;;4896523;29;20051;-71
2023/01/29 01:54:00;;;;;;;24.48;15.18;;;2.50;99.90;;;;;;4898561;29;20508;-72
2023/01/29 01:56:37;;;;;;;22.90;14.80;;;2.50;99.90;;;;;;4896860;29;20107;-72
2023/01/29 01:59:05;;;;;;;21.88;14.57;;;2.40;99.90;;;;;;4902320;29;20051;-73
2023/01/29 02:01:32;;;;;;;22.98;14.27;;;2.40;99.90;;;;;;4900304;29;20072;-70
2023/01/29 02:10:21;;;;;;;22.85;14.85;;;2.50;99.90;;;;;;4892836;29;20051;-73
2023/01/29 02:12:47;;;;;;;21.25;14.40;;;2.50;99.90;;;;;;4903535;29;20048;-74
2023/01/29 02:15:12;;;;;;;22.40;14.75;;;2.40;99.90;;;;;;4899019;29;20039;-73
2023/01/29 02:17:38;;;;;;;22.73;14.95;;;2.40;99.90;;;;;;4907714;29;20044;-74
2023/01/29 02:20:16;;;;;;;24.20;15.73;;;2.40;99.90;;;;;;4900730;29;20044;-75
2023/01/29 02:22:54;;;;;;;23.58;14.82;;;2.50;99.90;;;;;;4896697;29;20079;-74
2023/01/29 02:25:57;;;;;;;22.73;15.27;;;2.60;99.90;;;;;;4894429;29;20127;-73
2023/01/29 02:28:43;;;;;;;24.17;16.02;;;2.60;99.90;;;;;;4893162;29;20097;-73
2023/01/29 02:31:24;;;;;;;25.83;15.95;;;2.70;99.90;;;;;;4898570;29;20815;-72
2023/01/29 02:34:15;;;;;;;25.60;15.88;;;2.80;99.90;;;;;;4896580;29;20765;-73
2023/01/29 02:36:56;;;;;;;28.80;17.37;;;2.80;99.90;;;;;;4890736;29;20450;-73
2023/01/29 02:39:52;;;;;;;23.80;16.23;;;2.80;99.90;;;;;;4890607;29;20032;-73
2023/01/29 02:42:55;;;;;;;29.20;16.95;;;2.90;99.90;;;;;;4891152;29;20056;-73
2023/01/29 02:45:37;;;;;;;26.42;15.90;;;3.00;99.90;;;;;;4885400;29;20072;-73
2023/01/29 02:48:03;;;;;;;26.45;17.45;;;2.90;99.90;;;;;;4889164;29;20059;-73
2023/01/29 02:50:28;;;;;;;22.38;15.40;;;3.00;99.90;;;;;;4893316;29;20357;-73
2023/01/29 02:53:04;;;;;;;28.88;15.93;;;2.90;99.90;;;;;;4896263;29;20040;-73
2023/01/29 02:55:39;;;;;;;23.50;15.98;;;2.90;99.90;;;;;;4891609;29;20028;-74
2023/01/29 02:58:16;;;;;;;26.50;15.35;;;2.90;99.90;;;;;;4878809;29;20606;-72
2023/01/29 03:00:45;;;;;;;26.60;16.42;;;3.00;99.90;;;;;;4887742;29;20178;-70
2023/01/29 03:03:14;;;;;;;23.95;16.25;;;3.00;99.90;;;;;;4895991;29;20044;-69
2023/01/29 03:06:05;;;;;;;23.38;15.68;;;3.00;99.90;;;;;;4906800;29;20853;-70
2023/01/29 03:08:44;;;;;;;27.05;16.33;;;2.90;99.90;;;;;;4905697;29;20080;-70
2023/01/29 03:11:14;;;;;;;29.33;16.77;;;2.90;99.90;;;;;;4900744;29;20077;-70
2023/01/29 03:13:42;;;;;;;26.35;16.55;;;2.90;99.90;;;;;;4900368;29;20059;-70
2023/01/29 03:16:35;;;;;;;25.08;15.23;;;2.90;99.90;;;;;;4901149;29;20036;-70
2023/01/29 03:19:09;;;;;;;25.95;16.05;;;2.90;99.90;;;;;;4901900;29;20528;-70
2023/01/29 03:21:58;;;;;;;23.75;16.25;;;2.90;99.90;;;;;;4903984;29;20072;-70
2023/01/29 03:33:19;;;;;;;26.27;17.10;;;2.90;99.90;;;;;;4897932;29;20132;-70
2023/01/29 03:35:52;;;;;;;25.77;17.05;;;2.90;99.90;;;;;;4895474;29;20041;-71
2023/01/29 03:38:19;;;;;;;28.98;17.38;;;2.90;99.90;;;;;;4901444;29;20044;-70
2023/01/29 03:41:00;;;;;;;29.38;17.83;;;2.90;99.90;;;;;;4897905;29;20599;-68
2023/01/29 03:44:09;;;;;;;27.00;17.45;;;2.90;99.90;;;;;;4882117;29;20047;-68
2023/01/29 03:46:47;;;;;;;25.58;17.08;;;3.00;99.90;;;;;;4861786;29;20040;-71
2023/01/29 03:49:35;;;;;;;24.35;15.40;;;3.00;99.90;;;;;;4894083;29;20501;-69
2023/01/29 03:52:19;;;;;;;27.95;18.02;;;3.10;99.90;;;;;;4893142;29;20040;-69
2023/01/29 03:55:00;;;;;;;28.30;17.10;;;3.10;99.90;;;;;;4893962;29;20037;-72
2023/01/29 03:57:50;;;;;;;28.20;18.38;;;3.00;99.90;;;;;;4896009;29;20060;-72
2023/01/29 04:00:20;;;;;;;28.48;17.63;;;3.00;99.90;;;;;;4899714;29;20159;-71
2023/01/29 04:03:00;;;;;;;27.83;17.25;;;2.90;99.90;;;;;;4897980;29;20063;-71
2023/01/29 04:05:32;;;;;;;25.08;16.38;;;2.90;99.90;;;;;;4896989;29;20032;-71
2023/01/29 04:08:07;;;;;;;30.67;17.83;;;2.90;99.90;;;;;;4893215;29;20056;-71
2023/01/29 04:10:37;;;;;;;26.55;17.55;;;3.00;99.90;;;;;;4896472;29;20051;-71
2023/01/29 04:13:07;;;;;;;27.55;18.15;;;3.10;99.90;;;;;;4894916;29;20062;-70
2023/01/29 04:15:39;;;;;;;31.75;19.42;;;3.10;99.90;;;;;;4895014;29;20456;-71
2023/01/29 04:18:05;;;;;;;31.73;20.27;;;3.20;99.90;;;;;;4898869;29;20172;-72
2023/01/29 04:20:31;;;;;;;33.03;19.92;;;3.10;99.90;;;;;;4903906;29;20036;-72
2023/01/29 04:22:57;;;;;;;29.80;19.67;;;3.10;99.90;;;;;;4901532;29;20048;-71
2023/01/29 04:25:28;;;;;;;29.83;19.17;;;3.10;99.90;;;;;;4890021;29;20438;-72
2023/01/29 04:28:38;;;;;;;29.70;19.50;;;3.10;99.90;;;;;;4904159;29;20394;-71
2023/01/29 04:31:09;;;;;;;27.50;18.83;;;3.10;99.90;;;;;;4888238;29;20126;-72
2023/01/29 04:33:50;;;;;;;31.67;19.75;;;3.10;99.90;;;;;;4904526;29;20512;-72
2023/01/29 04:36:24;;;;;;;32.65;19.23;;;3.10;99.90;;;;;;4907667;29;20044;-72
2023/01/29 04:39:30;;;;;;;27.88;19.48;;;3.10;99.90;;;;;;4906080;29;20067;-71
2023/01/29 04:42:17;;;;;;;31.15;19.48;;;3.10;99.90;;;;;;4899486;29;20056;-71
2023/01/29 04:45:06;;;;;;;30.70;18.42;;;3.00;99.90;;;;;;4899554;29;20063;-71
2023/01/29 04:47:56;;;;;;;27.23;18.38;;;3.00;99.90;;;;;;4909990;29;20119;-71
2023/01/29 04:50:33;;;;;;;28.05;18.08;;;3.10;99.90;;;;;;4907606;29;20031;-71
2023/01/29 04:53:24;;;;;;;29.02;17.13;;;3.00;99.90;;;;;;4905290;29;20445;-71
2023/01/29 04:55:51;;;;;;;28.70;18.37;;;3.00;99.90;;;;;;4902672;29;20104;-71
2023/01/29 04:58:36;;;;;;;27.85;19.02;;;3.00;99.90;;;;;;4897318;29;20298;-71
2023/01/29 05:01:06;;;;;;;29.00;18.83;;;3.00;99.90;;;;;;4896138;29;20048;-71
2023/01/29 05:03:33;;;;;;;30.10;18.42;;;3.00;99.90;;;;;;4894928;29;20663;-71
2023/01/29 05:06:00;;;;;;;32.20;20.75;;;3.00;99.90;;;;;;4892502;29;20647;-71
2023/01/29 05:08:28;;;;;;;34.53;20.60;;;2.80;99.90;;;;;;4898698;29;20059;-71
2023/01/29 05:10:57;;;;;;;33.35;21.00;;;2.70;99.90;;;;;;4897802;29;20036;-71
2023/01/29 05:13:24;;;;;;;36.05;22.50;;;2.60;99.90;;;;;;4894828;29;20045;-68
2023/01/29 05:15:52;;;;;;;39.08;24.00;;;2.40;99.90;;;;;;4894009;29;20572;-68
2023/01/29 05:18:18;;;;;;;33.78;20.35;;;2.30;99.90;;;;;;4898743;29;20590;-69
2023/01/29 05:20:45;;;;;;;33.55;21.30;;;2.20;99.90;;;;;;4894349;29;20421;-69
2023/01/29 05:23:21;;;;;;;36.03;21.90;;;2.20;99.90;;;;;;4895954;29;20056;-69
2023/01/29 05:25:49;;;;;;;35.58;21.52;;;2.20;99.90;;;;;;4893637;29;20043;-69
2023/01/29 05:28:16;;;;;;;33.53;20.05;;;2.20;99.90;;;;;;4900096;29;20240;-69
2023/01/29 05:30:44;;;;;;;30.48;20.25;;;2.20;99.90;;;;;;4894905;29;20040;-69
2023/01/29 05:33:24;;;;;;;31.42;19.48;;;2.10;99.90;;;;;;4898767;29;20040;-71
2023/01/29 05:35:50;;;;;;;36.10;22.40;;;2.00;99.90;;;;;;4897325;29;20395;-72
2023/01/29 05:38:17;;;;;;;36.70;21.42;;;2.10;99.90;;;;;;4893268;29;20147;-72
2023/01/29 05:40:42;;;;;;;43.72;24.45;;;2.20;99.90;;;;;;4897696;29;21196;-72
2023/01/29 05:43:20;;;;;;;37.97;22.50;;;2.20;99.90;;;;;;4897398;29;20131;-72
2023/01/29 05:45:57;;;;;;;40.35;22.58;;;2.20;99.90;;;;;;4887124;29;20107;-70
2023/01/29 05:48:24;;;;;;;30.42;18.65;;;2.20;99.90;;;;;;4882575;29;20494;-71
2023/01/29 05:50:50;;;;;;;28.55;17.60;;;2.30;99.90;;;;;;4895844;29;20036;-72
2023/01/29 05:53:16;;;;;;;33.63;19.30;;;2.50;99.90;;;;;;4897637;29;20053;-71
2023/01/29 05:55:46;;;;;;;37.70;21.67;;;2.50;99.90;;;;;;4854455;29;1133808;-72
2023/01/29 05:58:12;;;;;;;24.88;16.92;;;2.50;99.90;;;;;;4881884;29;20043;-72
2023/01/29 06:00:39;;;;;;;27.20;17.63;;;2.50;99.90;;;;;;4878502;29;20045;-72
2023/01/29 06:03:05;;;;;;;30.17;18.38;;;2.60;99.90;;;;;;4872295;29;20119;-72
2023/01/29 06:05:30;;;;;;;28.75;16.65;;;2.70;99.90;;;;;;4883912;29;20688;-71
2023/01/29 06:07:56;;;;;;;27.23;17.08;;;2.80;99.90;;;;;;4879097;29;20060;-72
2023/01/29 06:10:21;;;;;;;25.80;16.92;;;2.80;99.90;;;;;;4877327;29;20025;-71
2023/01/29 06:12:47;;;;;;;23.90;16.42;;;2.80;99.90;;;;;;4879135;29;20044;-72
2023/01/29 06:15:16;;;;;;;26.10;15.88;;;2.90;99.90;;;;;;4878335;29;20099;-71
2023/01/29 06:17:42;;;;;;;26.58;16.15;;;2.80;99.90;;;;;;4880087;29;20096;-71
2023/01/29 06:20:09;;;;;;;24.55;14.90;;;2.80;99.90;;;;;;4881348;29;20048;-72
2023/01/29 06:22:34;;;;;;;25.50;16.13;;;2.80;99.90;;;;;;4880996;29;20049;-72
2023/01/29 06:25:00;;;;;;;24.98;15.70;;;2.80;99.90;;;;;;4884053;29;20029;-71
2023/01/29 06:27:26;;;;;;;22.83;15.48;;;2.80;99.90;;;;;;4882987;29;20052;-70
2023/01/29 06:29:51;;;;;;;23.20;15.05;;;2.80;99.90;;;;;;4881006;29;20041;-69
2023/01/29 06:32:17;;;;;;;25.83;16.27;;;2.80;99.90;;;;;;4880955;29;21492;-69
2023/01/29 06:34:43;;;;;;;22.80;15.88;;;2.90;99.90;;;;;;4879684;29;20028;-69
2023/01/29 06:37:08;;;;;;;24.55;15.57;;;2.80;99.90;;;;;;4880538;29;20096;-69
2023/01/29 06:39:34;;;;;;;26.23;17.50;;;2.80;99.90;;;;;;4884457;29;20057;-69
2023/01/29 06:42:00;;;;;;;24.05;16.05;;;2.90;99.90;;;;;;4886641;29;20076;-69
2023/01/29 06:44:25;;;;;;;26.55;16.63;;;3.00;99.90;;;;;;4870894;29;20098;-69
2023/01/29 06:46:51;;;;;;;23.42;15.23;;;3.00;99.90;;;;;;4883082;29;20036;-69
2023/01/29 06:49:17;;;;;;;23.48;14.77;;;3.10;99.90;;;;;;4879804;29;20021;-69
2023/01/29 06:51:42;;;;;;;23.08;15.00;;;3.10;99.90;;;;;;4870098;29;20113;-69
2023/01/29 06:54:09;;;;;;;22.65;14.93;;;3.10;99.90;;;;;;4880439;29;21667;-69
2023/01/29 06:56:35;;;;;;;31.88;20.30;;;3.00;99.90;;;;;;4886464;29;20123;-69
2023/01/29 06:59:00;;;;;;;35.20;23.05;;;2.90;99.90;;;;;;4895660;29;20051;-69
2023/01/29 07:01:26;;;;;;;38.67;24.70;;;3.00;99.90;;;;;;4904743;29;20056;-69
2023/01/29 07:03:52;;;;;;;36.78;24.13;;;3.00;99.90;;;;;;4898178;29;20056;-69
2023/01/29 07:06:17;;;;;;;38.40;24.05;;;3.00;99.90;;;;;;4886464;29;20942;-71
2023/01/29 07:08:44;;;;;;;33.22;21.40;;;3.00;99.90;;;;;;4893141;29;20047;-71
2023/01/29 07:11:09;;;;;;;37.67;23.63;;;3.00;99.90;;;;;;4900214;29;20127;-71
2023/01/29 07:13:53;;;;;;;33.50;20.13;;;3.00;99.90;;;;;;4898391;29;20047;-76
2023/01/29 07:16:19;;;;;;;27.05;18.27;;;3.10;99.90;;;;;;4899611;29;20929;-76
2023/01/29 07:18:45;;;;;;;26.63;17.77;;;3.00;99.90;;;;;;4900982;29;20096;-75
2023/01/29 07:21:10;;;;;;;24.95;17.05;;;3.00;99.90;;;;;;4904274;29;20080;-75
2023/01/29 07:23:36;;;;;;;23.63;15.77;;;3.10;99.90;;;;;;4903347;29;20068;-75
2023/01/29 07:26:04;;;;;;;28.23;16.70;;;3.00;99.90;;;;;;4894641;29;20048;-75
2023/01/29 07:28:30;;;;;;;24.50;16.23;;;3.00;99.90;;;;;;4898925;29;20032;-75
2023/01/29 07:30:57;;;;;;;31.38;19.25;;;3.00;99.90;;;;;;4890557;29;20110;-76
2023/01/29 07:33:23;;;;;;;20.48;13.82;;;3.00;99.90;;;;;;4893625;29;20127;-75
2023/01/29 07:35:48;;;;;;;15.43;10.40;;;3.00;99.90;;;;;;4898899;29;20047;-75
2023/01/29 07:38:14;;;;;;;24.15;16.50;;;2.80;99.90;;;;;;4899734;29;20489;-75
2023/01/29 07:40:39;;;;;;;25.25;15.52;;;2.80;99.90;;;;;;4898073;29;20837;-76
2023/01/29 07:43:08;;;;;;;25.92;11.43;;;2.80;99.90;;;;;;4899862;29;20470;-69
2023/01/29 07:45:36;;;;;;;14.07;10.10;;;2.80;99.90;;;;;;4897010;29;20036;-75
2023/01/29 07:48:03;;;;;;;14.65;10.70;;;2.80;99.90;;;;;;4898175;29;20047;-76
2023/01/29 07:50:29;;;;;;;11.85;7.95;;;2.80;99.90;;;;;;4880646;29;20518;-75
2023/01/29 07:52:55;;;;;;;11.73;7.63;;;2.60;99.90;;;;;;4893706;29;20056;-76
2023/01/29 07:55:21;;;;;;;14.77;7.55;;;2.70;99.90;;;;;;4902295;29;20040;-76
2023/01/29 07:57:53;;;;;;;11.98;7.70;;;2.70;99.90;;;;;;4897187;29;20123;-77
2023/01/29 08:00:19;;;;;;;37.60;20.65;;;2.70;99.90;;;;;;4889894;29;20154;-76
2023/01/29 08:02:45;;;;;;;21.35;14.45;;;2.70;99.90;;;;;;4892060;29;20179;-75
2023/01/29 08:05:11;;;;;;;16.08;12.05;;;2.70;99.90;;;;;;4900354;29;20032;-68
2023/01/29 08:07:36;;;;;;;13.55;11.98;;;2.70;99.90;;;;;;4894109;29;20043;-68
2023/01/29 08:10:02;;;;;;;11.55;7.47;;;2.80;99.90;;;;;;4893677;29;20954;-68
2023/01/29 08:12:28;;;;;;;12.15;8.32;;;2.80;99.90;;;;;;4898954;29;20053;-66
2023/01/29 08:14:54;;;;;;;12.82;7.90;;;2.80;99.90;;;;;;4899409;29;20028;-68
2023/01/29 08:17:19;;;;;;;11.40;7.57;;;2.70;99.90;;;;;;4903499;29;20051;-67
2023/01/29 08:19:45;;;;;;;11.30;7.35;;;2.70;99.90;;;;;;4897932;29;20515;-67
2023/01/29 08:22:10;;;;;;;11.27;7.85;;;2.70;99.90;;;;;;4897661;29;20064;-67
2023/01/29 08:24:36;;;;;;;10.43;7.07;;;2.50;99.90;;;;;;4897909;29;20038;-73
2023/01/29 08:27:02;;;;;;;12.57;8.23;;;2.40;99.90;;;;;;4904483;29;20764;-74
2023/01/29 08:29:28;;;;;;;13.40;7.63;;;2.50;99.90;;;;;;4894831;29;20047;-75
2023/01/29 08:31:54;;;;;;;11.48;7.75;;;2.50;99.90;;;;;;4888010;29;20044;-74
2023/01/29 08:34:19;;;;;;;12.65;7.95;;;2.60;99.90;;;;;;4891066;29;20053;-77
2023/01/29 08:36:46;;;;;;;11.25;6.95;;;2.50;99.90;;;;;;4899147;29;20040;-74
2023/01/29 08:39:12;;;;;;;10.75;7.15;;;2.40;99.90;;;;;;4894434;29;20052;-72
2023/01/29 08:41:37;;;;;;;9.90;6.03;;;2.40;99.90;;;;;;4897102;29;20149;-73
2023/01/29 08:44:03;;;;;;;13.05;6.32;;;2.40;99.90;;;;;;4888263;29;20568;-77
2023/01/29 08:46:30;;;;;;;8.88;6.00;;;2.40;99.90;;;;;;4890720;29;20119;-76
2023/01/29 08:48:56;;;;;;;9.50;6.10;;;2.50;99.90;;;;;;4898559;29;20517;-75
2023/01/29 08:51:23;;;;;;;9.35;5.70;;;2.60;99.90;;;;;;4895367;29;20039;-73
2023/01/29 08:53:49;;;;;;;10.30;6.07;;;2.60;99.90;;;;;;4896975;29;20591;-73
2023/01/29 08:56:15;;;;;;;9.10;5.78;;;2.70;99.90;;;;;;4876930;29;20044;-74
2023/01/29 08:58:41;;;;;;;10.95;6.68;;;2.80;99.90;;;;;;4881359;29;20051;-74
2023/01/29 09:01:11;;;;;;;18.45;7.30;;;2.80;99.90;;;;;;4878053;29;20045;-74
2023/01/29 09:03:39;;;;;;;14.45;6.13;;;2.70;99.90;;;;;;4880547;29;20833;-74
2023/01/29 09:06:07;;;;;;;13.27;6.43;;;2.70;99.90;;;;;;4881183;29;20049;-74
2023/01/29 09:08:33;;;;;;;10.93;6.38;;;2.70;99.90;;;;;;4875476;29;20044;-73
2023/01/29 09:10:59;;;;;;;7.50;5.18;;;2.80;99.90;;;;;;4870281;29;20039;-74
2023/01/29 09:13:25;;;;;;;8.07;5.28;;;2.80;99.90;;;;;;4871218;29;20721;-74
2023/01/29 09:15:51;;;;;;;10.68;6.22;;;2.80;99.90;;;;;;4881505;29;20048;-74
2023/01/29 09:18:16;;;;;;;10.20;5.72;;;2.70;99.90;;;;;;4881960;29;20053;-75
2023/01/29 09:20:42;;;;;;;8.95;6.25;;;2.70;99.90;;;;;;4873862;29;20041;-74
2023/01/29 09:23:09;;;;;;;7.03;5.13;;;2.80;99.90;;;;;;4876834;29;20679;-74
2023/01/29 09:25:36;;;;;;;8.02;5.43;;;2.80;99.90;;;;;;4871754;29;20123;-74
2023/01/29 09:28:02;;;;;;;7.32;5.25;;;2.60;99.90;;;;;;4875257;29;20049;-74
2023/01/29 09:30:28;;;;;;;7.45;5.15;;;2.50;99.90;;;;;;4875421;29;20041;-74
2023/01/29 09:32:54;;;;;;;8.07;5.00;;;2.30;99.90;;;;;;4878254;29;20045;-73
2023/01/29 09:35:23;;;;;;;8.65;5.40;;;2.30;99.90;;;;;;4874438;29;20041;-73
2023/01/29 09:37:50;;;;;;;9.57;6.00;;;2.30;99.90;;;;;;4872029;29;20486;-67
2023/01/29 09:40:25;;;;;;;10.10;6.28;;;2.30;99.90;;;;;;4872082;29;20045;-74
2023/01/29 09:43:14;;;;;;;6.93;4.80;;;2.20;99.90;;;;;;4877736;29;20064;-73
2023/01/29 09:46:04;;;;;;;7.60;5.35;;;2.30;99.90;;;;;;4865348;29;20104;-72
2023/01/29 09:48:32;;;;;;;9.98;6.20;;;2.30;99.90;;;;;;4870183;29;20657;-71
2023/01/29 09:51:01;;;;;;;8.25;5.53;;;2.40;99.90;;;;;;4865154;29;20759;-70
2023/01/29 09:53:41;;;;;;;8.43;5.80;;;2.40;99.90;;;;;;4874423;29;20120;-70
2023/01/29 09:56:27;;;;;;;8.93;6.03;;;2.30;99.90;;;;;;4876749;29;20066;-71
2023/01/29 09:58:57;;;;;;;8.32;5.22;;;2.30;99.90;;;;;;4894386;29;20055;-72
2023/01/29 10:01:37;;;;;;;7.70;5.20;;;2.30;99.90;;;;;;4902093;29;20159;-70
2023/01/29 10:04:21;;;;;;;7.10;5.10;;;2.20;99.90;;;;;;4898399;29;20069;-70
2023/01/29 10:07:02;;;;;;;7.70;5.50;;;2.20;99.90;;;;;;4885564;29;20096;-71
2023/01/29 10:10:10;;;;;;;7.90;5.35;;;2.20;99.90;;;;;;4892005;29;20611;-71
2023/01/29 10:12:56;;;;;;;8.70;5.60;;;2.30;99.90;;;;;;4872856;29;20032;-71
2023/01/29 10:15:28;;;;;;;6.53;4.88;;;2.30;99.90;;;;;;4882370;29;20148;-70
2023/01/29 10:18:00;;;;;;;;;;;2.40;99.90;;;;;;4889100;29;20099;-67
2023/01/29 10:20:48;;;;;;;7.50;5.32;;;2.40;99.90;;;;;;4893058;29;22281;-68
2023/01/29 10:23:22;;;;;;;9.02;6.18;;;2.50;99.90;;;;;;4897445;29;20036;-67
2023/01/29 10:25:48;;;;;;;9.07;5.68;;;2.40;99.90;;;;;;4899524;29;20497;-67
2023/01/29 10:28:24;;;;;;;6.95;4.63;;;2.30;99.90;;;;;;4899784;29;20040;-67
2023/01/29 10:30:58;;;;;;;6.88;4.88;;;2.40;99.90;;;;;;4899612;29;20093;-67
2023/01/29 10:33:39;;;;;;;7.53;5.55;;;2.40;99.90;;;;;;4904290;29;20036;-67
2023/01/29 10:36:15;;;;;;;6.35;5.18;;;2.30;99.90;;;;;;4895384;29;20043;-67
2023/01/29 10:38:47;;;;;;;7.25;5.20;;;2.20;99.90;;;;;;4905210;29;20044;-68
2023/01/29 10:41:23;;;;;;;7.07;4.70;;;2.10;99.90;;;;;;4903417;29;20395;-68
2023/01/29 10:44:29;;;;;;;7.43;4.82;;;2.20;99.90;;;;;;4887593;29;21034;-68
2023/01/29 10:47:07;;;;;;;5.93;4.40;;;2.20;99.90;;;;;;4886823;29;20033;-68
2023/01/29 10:49:51;;;;;;;6.47;5.00;;;2.20;99.90;;;;;;4889076;29;22084;-69
2023/01/29 10:52:37;;;;;;;9.27;5.43;;;2.10;99.90;;;;;;4898902;29;20048;-67
2023/01/29 10:55:42;;;;;;;7.40;5.30;;;2.00;99.90;;;;;;4899824;29;20088;-67
2023/01/29 10:58:32;;;;;;;7.85;5.47;;;2.10;99.90;;;;;;4859148;29;20060;-72
2023/01/29 11:00:59;;;;;;;7.82;5.07;;;2.20;99.90;;;;;;4861169;29;20100;-71
2023/01/29 11:03:30;;;;;;;6.28;4.38;;;2.30;99.90;;;;;;4851034;29;20052;-72
2023/01/29 11:06:03;;;;;;;7.40;4.85;;;2.20;99.90;;;;;;4866477;29;20060;-72
2023/01/29 11:08:41;;;;;;;7.07;4.38;;;2.20;99.90;;;;;;4867316;29;20072;-71
2023/01/29 11:11:13;;;;;;;6.97;4.68;;;2.30;99.90;;;;;;4875562;29;20119;-67
2023/01/29 11:13:44;;;;;;;6.63;4.88;;;2.30;99.90;;;;;;4885614;29;20214;-68
2023/01/29 11:16:10;;;;;;;4.60;3.83;;;2.50;99.90;;;;;;4886678;29;20510;-67
2023/01/29 11:18:58;;;;;;;5.43;3.72;;;2.50;99.90;;;;;;4879177;29;20072;-68
2023/01/29 11:21:25;;;;;;;6.28;4.90;;;2.40;99.90;;;;;;4879226;29;20479;-68
2023/01/29 11:24:05;;;;;;;6.57;4.35;;;2.40;99.90;;;;;;4886133;29;20040;-67
2023/01/29 11:26:37;;;;;;;6.55;4.20;;;2.40;99.90;;;;;;4883091;29;20168;-67
2023/01/29 11:29:03;;;;;;;4.57;3.80;;;2.40;99.90;;;;;;4876773;29;20041;-69
2023/01/29 11:31:36;;;;;;;6.80;4.05;;;2.40;99.90;;;;;;4870537;29;20085;-67
2023/01/29 11:34:12;;;;;;;5.93;4.07;;;2.30;99.90;;;;;;4883981;29;20045;-79
2023/01/29 11:36:38;;;;;;;6.35;3.33;;;2.20;99.90;;;;;;4857833;29;20590;-69
2023/01/29 11:39:18;;;;;;;5.95;3.92;;;2.30;99.90;;;;;;4871041;29;20768;-68
2023/01/29 11:42:04;;;;;;;6.15;4.05;;;2.30;99.90;;;;;;4872388;29;20148;-67
2023/01/29 11:44:37;;;;;;;6.65;4.18;;;2.30;99.90;;;;;;4878453;29;20101;-68
2023/01/29 11:47:20;;;;;;;6.57;4.03;;;2.20;99.90;;;;;;4879977;29;20505;-67
2023/01/29 11:49:52;;;;;;;4.25;3.30;;;2.10;99.90;;;;;;4878203;29;20044;-67
2023/01/29 11:52:24;;;;;;;7.47;3.95;;;2.10;99.90;;;;;;4884863;29;20071;-67
2023/01/29 11:54:50;;;;;;;5.80;4.20;;;1.90;99.90;;;;;;4878655;29;20044;-77
2023/01/29 11:57:37;;;;;;;5.53;4.07;;;1.90;99.90;;;;;;4896037;29;20064;-76
2023/01/29 12:00:24;;;;;;;5.28;3.17;;;1.90;99.90;;;;;;4900543;29;20087;-76
2023/01/29 12:03:14;;;;;;;6.60;4.00;;;2.00;99.90;;;;;;4901768;29;20048;-75
2023/01/29 12:05:53;;;;;;;6.28;4.35;;;2.00;99.90;;;;;;4897276;29;20817;-78
2023/01/29 12:08:21;;;;;;;6.15;4.00;;;2.10;99.90;;;;;;4899186;29;20709;-78
2023/01/29 12:10:47;;;;;;;8.45;5.00;;;2.20;99.90;;;;;;4901334;29;20032;-68
2023/01/29 12:13:14;;;;;;;4.75;3.90;;;2.30;99.90;;;;;;4900478;29;20393;-77
2023/01/29 12:15:43;;;;;;;6.20;3.92;;;2.30;99.90;;;;;;4899137;29;20064;-77
2023/01/29 12:18:18;;;;;;;4.93;4.07;;;2.40;99.90;;;;;;4900746;29;20036;-77
2023/01/29 12:20:51;;;;;;;4.95;3.70;;;2.40;99.90;;;;;;4889724;29;20142;-80
2023/01/29 12:23:53;;;;;;;4.78;3.53;;;2.30;99.90;;;;;;4903745;29;20051;-79
2023/01/29 12:26:31;;;;;;;8.07;4.77;;;2.30;99.90;;;;;;4876376;29;20072;-78
2023/01/29 12:29:35;;;;;;;5.72;4.18;;;2.40;99.90;;;;;;4892901;29;20032;-76
2023/01/29 12:32:33;;;;;;;6.53;4.45;;;2.50;99.90;;;;;;4895720;29;20043;-72
2023/01/29 12:35:21;;;;;;;6.25;3.97;;;2.40;99.90;;;;;;4881177;29;20095;-75
2023/01/29 12:38:17;;;;;;;4.78;3.50;;;2.50;99.90;;;;;;4895851;29;20072;-77
2023/01/29 12:40:57;;;;;;;5.50;3.67;;;2.50;99.90;;;;;;4892718;29;20058;-77
2023/01/29 12:43:29;;;;;;;8.30;6.05;;;2.50;99.90;;;;;;4890366;29;20096;-74
2023/01/29 12:45:58;;;;;;;4.65;3.80;;;2.50;99.90;;;;;;4889518;29;20038;-77
2023/01/29 12:48:32;;;;;;;5.50;3.80;;;2.50;99.90;;;;;;4888669;29;20044;-75
2023/01/29 12:51:08;;;;;;;6.97;4.05;;;2.40;99.90;;;;;;4897186;29;20029;-77
2023/01/29 12:53:40;;;;;;;6.35;3.70;;;2.40;99.90;;;;;;4899255;29;20052;-76
2023/01/29 12:56:12;;;;;;;5.63;4.30;;;2.40;99.90;;;;;;4903287;29;20040;-75
2023/01/29 12:58:46;;;;;;;5.43;4.03;;;2.20;99.90;;;;;;4898923;29;20156;-74
2023/01/29 13:01:14;;;;;;;6.13;4.47;;;2.10;99.90;;;;;;4890491;29;20032;-73
2023/01/29 13:03:47;;;;;;;5.18;3.53;;;2.10;99.90;;;;;;4888076;29;20045;-73
2023/01/29 13:06:25;;;;;;;6.75;4.85;;;2.20;99.90;;;;;;4891157;29;20132;-73
2023/01/29 13:08:55;;;;;;;5.93;4.82;;;2.10;99.90;;;;;;4891229;29;20043;-73
2023/01/29 13:11:29;;;;;;;8.95;4.22;;;2.10;99.90;;;;;;4879125;29;20047;-73
2023/01/29 13:14:19;;;;;;;6.03;4.15;;;2.20;99.90;;;;;;4889441;29;20154;-74
2023/01/29 13:16:48;;;;;;;5.47;4.10;;;2.30;99.90;;;;;;4889457;29;20060;-77
2023/01/29 13:19:28;;;;;;;5.32;3.58;;;2.40;99.90;;;;;;4890369;29;20036;-74
2023/01/29 13:21:56;;;;;;;5.53;3.60;;;2.40;99.90;;;;;;4890338;29;20120;-76
2023/01/29 13:24:26;;;;;;;4.03;3.22;;;2.50;99.90;;;;;;4890751;29;20043;-74
2023/01/29 13:26:53;;;;;;;6.47;4.30;;;2.50;99.90;;;;;;4889601;29;20040;-69
2023/01/29 13:29:28;;;;;;;7.68;4.50;;;2.40;99.90;;;;;;4885180;29;20048;-73
2023/01/29 13:31:59;;;;;;;7.75;4.55;;;2.60;99.90;;;;;;4891118;29;20036;-74
2023/01/29 13:34:35;;;;;;;5.13;4.00;;;2.50;99.90;;;;;;4880398;29;20831;-74
2023/01/29 13:37:27;;;;;;;7.57;3.95;;;2.40;99.90;;;;;;4898725;29;20552;-74
2023/01/29 13:39:54;;;;;;;6.32;4.35;;;2.40;99.90;;;;;;4901417;29;20040;-74
2023/01/29 13:42:25;;;;;;;5.47;3.42;;;2.40;99.90;;;;;;4897274;29;20053;-73